Time;durP1;ratioP1;P1;durP2;ratioP2;P2;SDS_P1;SDS_P2;PMS_P1;PMS_P2;Temp;Humidity;BMP_temperature;BMP_pressure;BME280_temperature;BME280_humidity;BME280_pressure;Samples;Min_cycle;Max_cycle;Signal;HPM_P1;HPM_P2
2021/07/18 06:01:53;;;;;;;17.32;13.62;;;;;;;25.37;75.03;100057.48;1749926;78;25783;-66
2021/07/18 06:04:20;;;;;;;17.48;14.85;;;;;;;25.61;75.06;100056.36;1754161;80;25710;-65
2021/07/18 06:06:47;;;;;;;21.87;13.70;;;;;;;25.84;75.02;100053.45;1741725;80;25802;-65
2021/07/18 06:09:13;;;;;;;14.75;13.20;;;;;;;26.08;74.29;100059.82;1745597;80;25699;-65
2021/07/18 06:11:40;;;;;;;18.40;12.60;;;;;;;26.18;73.27;100060.24;1750446;80;25729;-65
2021/07/18 06:14:06;;;;;;;17.57;12.45;;;;;;;26.25;72.56;100054.58;1719937;80;28350;-65
2021/07/18 06:16:33;;;;;;;15.28;13.05;;;;;;;26.32;71.90;100046.73;1747003;80;25753;-65
2021/07/18 06:18:59;;;;;;;15.48;12.58;;;;;;;26.37;71.44;100055.18;1730986;81;25737;-74
2021/07/18 06:21:26;;;;;;;15.03;12.18;;;;;;;26.42;70.67;100051.31;1746108;80;25643;-74
2021/07/18 06:23:52;;;;;;;20.45;13.13;;;;;;;26.44;70.26;100050.30;1754255;80;25691;-74
2021/07/18 06:26:19;;;;;;;18.65;11.97;;;;;;;26.47;70.20;100043.89;1745445;80;27355;-74
2021/07/18 06:28:45;;;;;;;16.65;12.37;;;;;;;26.54;69.86;100045.75;1742594;80;26090;-74
2021/07/18 06:31:12;;;;;;;15.98;12.35;;;;;;;26.67;70.24;100044.56;1748242;80;25725;-74
2021/07/18 06:33:41;;;;;;;14.98;11.90;;;;;;;26.79;69.70;100043.92;1752420;80;25781;-74
2021/07/18 06:36:08;;;;;;;17.10;12.58;;;;;;;26.93;69.73;100047.02;1749800;80;25802;-74
2021/07/18 06:38:36;;;;;;;14.50;12.05;;;;;;;27.01;68.88;100039.34;1749448;81;27425;-74
2021/07/18 06:41:03;;;;;;;15.23;12.43;;;;;;;27.07;68.65;100049.33;1755213;80;25671;-74
2021/07/18 06:43:30;;;;;;;18.00;12.45;;;;;;;27.11;68.39;100054.21;1754455;80;25791;-74
2021/07/18 06:45:56;;;;;;;15.10;11.75;;;;;;;27.11;67.90;100057.77;1749200;80;26314;-74
2021/07/18 06:48:25;;;;;;;15.60;11.50;;;;;;;27.11;67.73;100053.59;1688621;83;25852;-74
2021/07/18 06:50:52;;;;;;;16.75;11.45;;;;;;;27.11;67.31;100057.77;1692702;83;33232;-74
2021/07/18 06:53:18;;;;;;;15.15;11.53;;;;;;;27.04;66.79;100053.75;1717957;80;26426;-75
2021/07/18 06:55:45;;;;;;;13.43;10.82;;;;;;;26.99;66.72;100055.64;1751966;80;25774;-74
2021/07/18 06:58:11;;;;;;;14.47;10.28;;;;;;;26.96;67.00;100052.33;1694391;83;26582;-75
2021/07/18 07:00:39;;;;;;;12.53;10.78;;;;;;;26.98;66.81;100058.23;1696100;83;25764;-74
2021/07/18 07:03:08;;;;;;;13.35;10.28;;;;;;;27.00;66.46;100049.66;1728239;81;27378;-74
2021/07/18 07:05:37;;;;;;;12.37;9.93;;;;;;;26.99;66.17;100048.09;1714863;81;26301;-65
2021/07/18 07:08:05;;;;;;;;;;;;;;;27.04;66.45;100048.20;1734558;81;25718;-65
2021/07/18 07:10:32;;;;;;;14.53;9.23;;;;;;;27.23;66.71;100049.39;1729227;81;25750;-65
2021/07/18 07:12:58;;;;;;;14.10;9.70;;;;;;;27.50;67.00;100052.61;1756728;80;25672;-65
2021/07/18 07:15:25;;;;;;;12.23;10.03;;;;;;;27.69;66.48;100053.77;1756970;80;27415;-65
2021/07/18 07:17:51;;;;;;;14.28;10.55;;;;;;;27.79;65.67;100052.73;1743179;80;25730;-65
2021/07/18 07:20:18;;;;;;;16.07;9.98;;;;;;;27.85;65.05;100050.98;1739333;81;25752;-65
2021/07/18 07:22:45;;;;;;;14.70;10.30;;;;;;;27.87;64.63;100056.91;1749403;80;27720;-65
2021/07/18 07:25:14;;;;;;;14.45;10.45;;;;;;;27.87;64.42;100058.30;1742871;80;25820;-65
2021/07/18 07:27:42;;;;;;;11.48;9.73;;;;;;;27.96;64.45;100059.11;1746740;80;27917;-65
2021/07/18 07:30:13;;;;;;;13.18;11.43;;;;;;;28.05;64.23;100064.83;1738321;80;25808;-66
2021/07/18 07:32:40;;;;;;;12.65;9.95;;;;;;;28.14;64.09;100064.21;1745201;80;25753;-65
2021/07/18 07:35:10;;;;;;;14.70;10.50;;;;;;;28.36;63.90;100066.45;1753572;80;25841;-75
2021/07/18 07:37:36;;;;;;;12.10;10.15;;;;;;;28.42;63.33;100061.32;1709052;81;25776;-75
2021/07/18 07:40:07;;;;;;;12.35;9.48;;;;;;;28.45;62.39;100065.21;1749712;80;27383;-75
2021/07/18 07:42:36;;;;;;;13.32;10.30;;;;;;;28.44;62.20;100074.17;1749271;80;25785;-76
2021/07/18 07:45:04;;;;;;;10.72;9.63;;;;;;;28.50;61.89;100073.83;1743838;80;25712;-76
2021/07/18 07:47:31;;;;;;;12.30;10.13;;;;;;;28.49;61.46;100073.64;1731310;81;26284;-76
2021/07/18 07:49:58;;;;;;;11.97;9.88;;;;;;;28.50;61.44;100081.37;1747190;80;25793;-75
2021/07/18 07:52:24;;;;;;;11.48;10.20;;;;;;;28.49;61.15;100082.61;1756638;80;27304;-76
2021/07/18 07:54:51;;;;;;;14.00;10.75;;;;;;;28.45;60.84;100078.53;1754770;80;25617;-75
2021/07/18 07:57:17;;;;;;;11.65;10.25;;;;;;;28.41;60.92;100077.83;1749112;80;25799;-75
2021/07/18 07:59:44;;;;;;;11.48;9.38;;;;;;;28.35;60.66;100078.20;1749965;80;25773;-75
2021/07/18 08:02:11;;;;;;;16.00;9.53;;;;;;;28.30;60.88;100079.50;1683168;83;25768;-75
2021/07/18 08:04:38;;;;;;;15.18;9.33;;;;;;;28.26;60.95;100076.62;1746462;80;27548;-65
2021/07/18 08:07:05;;;;;;;14.25;10.08;;;;;;;28.26;60.93;100083.58;1741830;80;25666;-75
2021/07/18 08:09:31;;;;;;;10.85;8.93;;;;;;;28.20;60.74;100081.17;1749439;80;25785;-75
2021/07/18 08:11:58;;;;;;;16.23;9.48;;;;;;;28.10;60.57;100080.20;1661051;84;25759;-75
2021/07/18 08:14:24;;;;;;;14.28;9.70;;;;;;;28.05;60.70;100081.50;1746905;80;25735;-75
2021/07/18 08:16:51;;;;;;;11.45;9.93;;;;;;;28.06;60.81;100081.69;1740175;80;27358;-75
2021/07/18 08:19:17;;;;;;;10.55;8.85;;;;;;;28.03;60.82;100088.73;1750727;80;25843;-74
2021/07/18 08:21:46;;;;;;;16.37;9.60;;;;;;;28.04;60.95;100088.27;1750321;80;25751;-75
2021/07/18 08:24:13;;;;;;;13.65;9.00;;;;;;;28.04;60.66;100085.48;1748173;80;26276;-75
2021/07/18 08:26:40;;;;;;;13.35;9.48;;;;;;;28.08;60.60;100082.03;1680151;83;25649;-75
2021/07/18 08:29:07;;;;;;;14.00;9.23;;;;;;;28.13;60.41;100083.52;1739958;80;28277;-75
2021/07/18 08:31:33;;;;;;;12.10;9.85;;;;;;;28.26;61.16;100089.91;1752602;80;25726;-75
2021/07/18 08:33:59;;;;;;;11.08;9.08;;;;;;;28.49;61.10;100093.73;1745665;80;25757;-75
2021/07/18 08:36:26;;;;;;;11.55;9.08;;;;;;;28.73;61.04;100092.15;1743713;80;25689;-75
2021/07/18 08:38:52;;;;;;;11.83;9.70;;;;;;;29.14;60.50;100087.83;1713734;82;25725;-76
2021/07/18 08:41:22;;;;;;;10.98;8.73;;;;;;;29.39;59.83;100086.50;1754521;80;27681;-75
2021/07/18 08:43:50;;;;;;;10.95;8.95;;;;;;;29.54;59.16;100083.27;1746262;80;26065;-75
2021/07/18 08:46:19;;;;;;;12.40;9.00;;;;;;;29.82;58.88;100078.09;1741009;80;25769;-76
2021/07/18 08:48:47;;;;;;;12.25;9.03;;;;;;;29.92;58.00;100089.51;1713913;81;25776;-75
2021/07/18 08:51:15;;;;;;;10.32;8.90;;;;;;;29.88;57.58;100074.30;1741000;80;25883;-75
2021/07/18 08:53:42;;;;;;;11.25;8.70;;;;;;;29.97;58.28;100077.17;1750073;80;27496;-75
2021/07/18 08:56:10;;;;;;;9.35;8.40;;;;;;;30.39;57.80;100075.43;1758911;80;25715;-76
2021/07/18 08:58:37;;;;;;;9.78;8.20;;;;;;;30.85;57.37;100079.39;1748947;80;25659;-75
2021/07/18 09:01:04;;;;;;;11.83;8.90;;;;;;;31.30;56.19;100075.97;1737879;80;26663;-76
2021/07/18 09:03:30;;;;;;;12.25;8.78;;;;;;;31.33;54.55;100075.66;1744455;80;26340;-77
2021/07/18 09:06:11;;;;;;;29.42;27.32;;;;;;;31.32;54.58;100069.30;1742281;80;27391;-76
2021/07/18 09:08:46;;;;;;;8.80;7.33;;;;;;;31.35;54.60;100076.77;1756846;80;25670;-78
2021/07/18 09:11:20;;;;;;;11.68;10.55;;;;;;;31.62;54.37;100074.74;1668163;83;26019;-77
2021/07/18 09:14:02;;;;;;;8.78;7.25;;;;;;;31.99;54.10;100074.07;1719974;81;25632;-78
2021/07/18 09:16:41;;;;;;;8.68;7.78;;;;;;;32.48;54.30;100071.06;1744823;80;25786;-78
2021/07/18 09:19:29;;;;;;;12.98;7.60;;;;;;;33.13;52.97;100068.38;1753915;80;27329;-77
2021/07/18 09:22:19;;;;;;;11.10;7.12;;;;;;;33.55;51.90;100064.69;1754976;80;25881;-78
2021/07/18 09:24:54;;;;;;;12.73;7.85;;;;;;;33.77;50.79;100073.64;1745870;80;25687;-78
2021/07/18 09:27:26;;;;;;;10.68;6.72;;;;;;;33.63;49.47;100077.88;1745159;80;26219;-77
2021/07/18 09:30:12;;;;;;;10.10;7.65;;;;;;;33.32;48.72;100082.34;1746044;80;25770;-78
2021/07/18 09:32:42;;;;;;;11.97;7.33;;;;;;;33.05;49.06;100076.95;1724778;81;27292;-77
2021/07/18 09:35:13;;;;;;;8.10;7.00;;;;;;;32.99;49.36;100078.06;1722629;80;25875;-78
2021/07/18 09:37:45;;;;;;;11.63;6.40;;;;;;;32.89;49.01;100080.09;1749343;80;26106;-78
2021/07/18 09:40:16;;;;;;;10.82;5.87;;;;;;;33.03;50.20;100080.86;1741797;81;25697;-78
2021/07/18 09:42:49;;;;;;;8.35;6.50;;;;;;;33.52;50.16;100076.20;1747245;80;25684;-80
2021/07/18 09:45:26;;;;;;;8.53;6.47;;;;;;;33.90;49.28;100064.21;1748565;80;27433;-76
2021/07/18 09:48:03;;;;;;;9.80;6.70;;;;;;;34.06;48.70;100067.38;1688669;83;25725;-78
2021/07/18 09:50:44;;;;;;;8.83;6.15;;;;;;;34.23;47.85;100067.77;1747111;80;25787;-78
2021/07/18 09:53:22;;;;;;;9.33;8.05;;;;;;;34.48;47.93;100069.13;1752531;80;25690;-78
2021/07/18 09:56:04;;;;;;;8.73;6.60;;;;;;;34.72;46.96;100067.70;1679831;83;25668;-79
2021/07/18 09:58:32;;;;;;;9.85;6.37;;;;;;;34.94;46.49;100076.55;1741507;80;29558;-78
2021/07/18 10:01:02;;;;;;;10.10;6.92;;;;;;;35.17;46.22;100069.27;1752182;80;33221;-79
2021/07/18 10:03:29;;;;;;;9.08;6.33;;;;;;;35.46;45.72;100064.13;1763394;80;25672;-79
2021/07/18 10:06:09;;;;;;;8.83;6.47;;;;;;;35.77;44.98;100057.96;1763313;80;25772;-79
2021/07/18 10:08:47;;;;;;;11.53;6.28;;;;;;;36.33;43.29;100056.53;1760983;80;25562;-80
2021/07/18 10:11:17;;;;;;;7.58;5.97;;;;;;;36.33;43.29;100056.53;1763769;80;27991;-80
2021/07/18 10:13:47;;;;;;;11.60;6.10;;;;;;;36.00;42.52;100057.64;1763999;80;25782;-79
2021/07/18 10:16:15;;;;;;;8.98;5.90;;;;;;;35.53;42.33;100062.32;1756760;80;25801;-79
2021/07/18 10:18:43;;;;;;;;;;;;;;;35.09;42.47;100059.70;1769425;80;25754;-79
2021/07/18 10:21:13;;;;;;;10.93;6.28;;;;;;;34.85;42.97;100057.60;1763920;80;32592;-80
2021/07/18 10:23:42;;;;;;;6.80;6.10;;;;;;;34.98;43.29;100060.91;1764893;80;27316;-80
2021/07/18 10:26:13;;;;;;;8.20;6.30;;;;;;;35.42;43.58;100074.81;1767306;80;25747;-80
2021/07/18 10:28:40;;;;;;;7.08;6.28;;;;;;;35.25;42.41;100071.09;1764781;80;25769;-80
2021/07/18 10:31:12;;;;;;;7.30;6.03;;;;;;;34.92;42.05;100062.22;1698110;83;26475;-79
2021/07/18 10:33:42;;;;;;;9.40;5.45;;;;;;;34.65;42.78;100063.84;1765952;80;25697;-79
2021/07/18 10:36:11;;;;;;;7.40;5.70;;;;;;;34.65;42.78;100063.84;1765798;80;27331;-80
2021/07/18 10:38:38;;;;;;;9.88;6.62;;;;;;;34.79;43.43;100052.66;1766608;80;26281;-80
2021/07/18 10:41:04;;;;;;;8.88;5.67;;;;;;;35.17;43.50;100056.62;1767140;80;25361;-81
2021/07/18 10:43:47;;;;;;;11.63;6.17;;;;;;;35.67;43.18;100053.70;1763431;80;26379;-81
2021/07/18 10:46:35;;;;;;;7.80;5.65;;;;;;;36.24;42.34;100065.13;1768504;80;26355;-81
2021/07/18 10:49:02;;;;;;;17.85;7.78;;;;;;;36.59;41.56;100052.97;1751658;80;27384;-81
2021/07/18 10:51:37;;;;;;;13.08;6.78;;;;;;;36.63;40.48;100049.31;1760509;80;25713;-80
2021/07/18 10:54:17;;;;;;;21.00;9.60;;;;;;;36.31;39.49;100054.08;1762648;80;25742;-80
2021/07/18 10:56:50;;;;;;;20.70;9.53;;;;;;;35.82;39.23;100058.67;1700759;83;25738;-80
2021/07/18 10:59:40;;;;;;;25.90;9.73;;;;;;;35.34;39.61;100054.75;1765836;80;25665;-79
2021/07/18 11:02:12;;;;;;;12.50;6.87;;;;;;;34.98;40.17;100049.67;1763211;80;27963;-78
2021/07/18 11:04:53;;;;;;;8.18;6.47;;;;;;;34.67;40.46;100048.69;1700971;83;26440;-66
2021/07/18 11:07:32;;;;;;;9.00;6.62;;;;;;;34.43;41.13;100051.71;1721319;81;25688;-65
2021/07/18 11:10:13;;;;;;;8.73;6.35;;;;;;;34.29;41.51;100041.84;1746012;80;25792;-78
2021/07/18 11:12:49;;;;;;;12.37;7.45;;;;;;;34.31;42.00;100045.73;1725870;81;25694;-78
2021/07/18 11:15:20;;;;;;;10.13;7.08;;;;;;;34.21;41.83;100038.64;1746824;80;27303;-79
2021/07/18 11:18:11;;;;;;;9.88;7.00;;;;;;;34.12;42.16;100059.70;1740157;80;27158;-79
2021/07/18 11:20:55;;;;;;;14.28;7.70;;;;;;;34.30;43.27;100038.56;1740323;80;25812;-80
2021/07/18 11:23:34;;;;;;;9.78;6.65;;;;;;;34.86;43.81;100037.45;1756760;80;25943;-79
2021/07/18 11:26:08;;;;;;;;;;;;;;;35.51;42.91;100039.55;1698836;83;25813;-79
2021/07/18 11:28:39;;;;;;;9.10;6.33;;;;;;;35.88;42.00;100038.44;1740290;80;28142;-66
2021/07/18 11:31:14;;;;;;;8.03;6.20;;;;;;;36.38;41.74;100055.05;1740715;80;25877;-66
2021/07/18 11:33:49;;;;;;;9.25;6.55;;;;;;;36.59;41.05;100036.06;1685351;83;25777;-66
2021/07/18 11:36:20;;;;;;;10.00;6.85;;;;;;;36.81;40.08;100032.11;1711941;80;25791;-79
2021/07/18 11:38:49;;;;;;;9.00;6.12;;;;;;;36.93;39.36;100033.59;1749420;80;25765;-78
2021/07/18 11:41:29;;;;;;;10.40;6.87;;;;;;;37.13;39.08;100032.74;1685670;83;28015;-79
2021/07/18 11:44:02;;;;;;;8.05;6.50;;;;;;;37.03;38.10;100030.73;1746181;80;25702;-78
2021/07/18 11:46:37;;;;;;;8.53;6.05;;;;;;;36.57;37.77;100029.52;1739895;80;25654;-79
2021/07/18 11:49:05;;;;;;;6.22;5.58;;;;;;;36.09;38.22;100029.98;1720464;81;25723;-79
2021/07/18 11:51:36;;;;;;;7.45;6.15;;;;;;;35.75;38.71;100027.38;1755645;80;25765;-78
2021/07/18 11:54:04;;;;;;;8.43;6.62;;;;;;;35.57;39.24;100024.95;1745834;80;27319;-79
2021/07/18 11:56:35;;;;;;;8.25;6.90;;;;;;;35.68;39.87;100027.13;1751012;80;33307;-79
2021/07/18 11:59:06;;;;;;;8.43;6.08;;;;;;;35.69;39.32;100019.61;1750793;80;25779;-78
2021/07/18 12:01:36;;;;;;;8.70;6.42;;;;;;;35.59;39.07;100023.81;1752981;80;25776;-79
2021/07/18 12:04:10;;;;;;;9.70;6.85;;;;;;;35.57;39.39;100015.72;1739550;81;25768;-78
2021/07/18 12:06:37;;;;;;;9.60;6.83;;;;;;;35.53;39.30;100015.92;1747194;80;27493;-78
2021/07/18 12:09:20;;;;;;;7.93;6.50;;;;;;;35.65;39.77;100013.41;1743233;80;25692;-78
2021/07/18 12:11:49;;;;;;;7.85;6.28;;;;;;;35.99;39.29;100014.52;1679516;83;26054;-79
2021/07/18 12:14:17;;;;;;;9.28;6.22;;;;;;;36.34;39.28;100005.23;1754417;80;25517;-79
2021/07/18 12:16:45;;;;;;;9.43;6.72;;;;;;;36.69;39.29;100003.64;1725210;80;33296;-79
2021/07/18 12:19:14;;;;;;;9.10;6.08;;;;;;;36.83;37.99;100007.02;1668601;83;28064;-67
2021/07/18 12:21:45;;;;;;;10.43;6.00;;;;;;;36.64;37.43;100008.59;1678558;83;26411;-66
2021/07/18 12:24:22;;;;;;;7.10;5.90;;;;;;;36.36;36.96;100007.68;1740532;80;26385;-66
2021/07/18 12:27:03;;;;;;;9.40;6.10;;;;;;;36.03;36.78;100005.22;1708571;81;25797;-66
2021/07/18 12:29:35;;;;;;;8.10;5.83;;;;;;;35.75;37.20;99995.80;1728456;81;25728;-66
2021/07/18 12:32:04;;;;;;;7.72;5.95;;;;;;;35.61;37.32;99995.97;1738173;81;27158;-66
2021/07/18 12:34:33;;;;;;;;;;;;;;;35.46;37.21;99992.44;1752495;80;25797;-78
2021/07/18 12:37:05;;;;;;;8.58;6.00;;;;;;;35.49;37.40;99995.04;1745902;80;25756;-67
2021/07/18 12:39:37;;;;;;;6.30;5.70;;;;;;;35.65;37.25;99987.33;1749215;80;25821;-67
2021/07/18 12:42:07;;;;;;;6.30;5.70;;;;;;;35.52;36.93;99990.48;1729718;81;25867;-67
2021/07/18 12:44:38;;;;;;;6.87;5.62;;;;;;;35.32;37.15;99987.00;1746108;80;27331;-67
2021/07/18 12:47:40;;;;;;;6.65;5.78;;;;;;;35.11;37.12;99988.33;1714890;82;25713;-67
2021/07/18 12:50:37;;;;;;;9.83;5.62;;;;;;;35.06;38.09;99989.62;1718958;82;25762;-66
2021/07/18 12:53:17;;;;;;;7.03;4.90;;;;;;;35.29;38.03;99985.93;1741876;80;25737;-66
2021/07/18 12:55:58;;;;;;;7.08;5.53;;;;;;;35.52;38.02;99990.48;1681657;83;25691;-66
2021/07/18 12:58:28;;;;;;;8.90;5.60;;;;;;;35.88;37.74;99986.37;1675422;83;27318;-66
2021/07/18 13:01:12;;;;;;;6.22;5.62;;;;;;;36.33;37.16;99986.78;1755650;80;25811;-66
2021/07/18 13:03:46;;;;;;;7.65;6.70;;;;;;;36.65;36.53;99983.39;1752641;80;26276;-67
2021/07/18 13:06:17;;;;;;;7.92;5.08;;;;;;;36.92;36.27;99982.76;1750059;80;26351;-67
2021/07/18 13:08:56;;;;;;;7.28;4.97;;;;;;;37.15;35.85;99980.86;1757294;80;25699;-66
2021/07/18 13:11:41;;;;;;;9.50;5.65;;;;;;;37.24;35.13;99984.15;1760660;80;27509;-67
2021/07/18 13:14:30;;;;;;;7.03;5.45;;;;;;;37.29;34.99;99979.19;1754832;80;25746;-66
2021/07/18 13:17:10;;;;;;;6.87;6.17;;;;;;;37.43;35.13;99983.90;1685879;83;25774;-66
2021/07/18 13:19:44;;;;;;;6.15;5.60;;;;;;;37.36;34.22;99981.55;1670835;83;26361;-66
2021/07/18 13:22:11;;;;;;;8.08;5.67;;;;;;;37.12;34.32;99977.02;1681933;83;25893;-66
2021/07/18 13:24:42;;;;;;;5.85;5.28;;;;;;;37.17;34.57;99976.28;1751603;80;27219;-66
2021/07/18 13:27:21;;;;;;;6.55;5.95;;;;;;;37.24;34.31;99981.33;1745515;80;27199;-79
2021/07/18 13:30:04;;;;;;;7.50;6.08;;;;;;;37.43;33.95;99977.50;1761391;80;25349;-79
2021/07/18 13:32:37;;;;;;;5.58;5.08;;;;;;;37.45;33.43;99977.11;1761628;80;27107;-80
2021/07/18 13:35:09;;;;;;;6.08;5.47;;;;;;;37.39;33.61;99972.06;1691691;83;25895;-79
2021/07/18 13:37:58;;;;;;;6.60;5.70;;;;;;;37.21;33.40;99969.67;1677874;83;27447;-79
2021/07/18 13:40:31;;;;;;;7.72;6.00;;;;;;;36.82;33.41;99967.42;1747115;80;25940;-79
2021/07/18 13:43:17;;;;;;;7.65;6.28;;;;;;;36.53;33.80;99967.02;1756310;80;25775;-79
2021/07/18 13:45:48;;;;;;;7.28;6.55;;;;;;;36.19;33.96;99966.65;1710546;81;26214;-78
2021/07/18 13:48:22;;;;;;;9.08;6.47;;;;;;;35.83;34.49;99972.25;1761112;80;25803;-79
2021/07/18 13:50:51;;;;;;;8.58;6.45;;;;;;;35.48;34.86;99968.17;1754066;80;27348;-79
2021/07/18 13:53:19;;;;;;;8.70;6.17;;;;;;;35.19;35.37;99967.61;1752561;80;25759;-79
2021/07/18 13:55:46;;;;;;;8.58;6.75;;;;;;;34.93;35.49;99963.25;1744196;80;25792;-79
2021/07/18 13:58:14;;;;;;;7.72;6.47;;;;;;;34.75;35.70;99965.02;1723349;80;25696;-78
2021/07/18 14:00:41;;;;;;;9.28;6.87;;;;;;;34.57;35.97;99964.55;1750733;80;25672;-78
2021/07/18 14:03:09;;;;;;;8.38;6.90;;;;;;;34.18;36.75;99949.77;1698910;83;27340;-78
2021/07/18 14:05:40;;;;;;;8.38;7.22;;;;;;;34.18;36.75;99949.77;1752002;80;25792;-66
2021/07/18 14:08:11;;;;;;;10.38;7.22;;;;;;;33.99;36.68;99958.97;1747181;80;25727;-66
2021/07/18 14:10:41;;;;;;;8.40;6.83;;;;;;;33.83;37.09;99961.56;1754682;80;25715;-66
2021/07/18 14:13:08;;;;;;;7.37;6.40;;;;;;;33.66;37.24;99961.19;1748872;80;25720;-66
2021/07/18 14:15:35;;;;;;;8.63;6.50;;;;;;;33.62;38.03;99973.98;1748039;80;27365;-66
2021/07/18 14:18:04;;;;;;;7.45;6.60;;;;;;;33.48;38.36;99955.84;1745516;80;25715;-66
2021/07/18 14:20:32;;;;;;;6.97;6.35;;;;;;;33.50;38.59;99953.34;1681432;83;25876;-66
2021/07/18 14:22:59;;;;;;;10.93;6.80;;;;;;;33.45;38.41;99949.78;1686017;83;26323;-68
2021/07/18 14:25:28;;;;;;;7.40;6.42;;;;;;;33.17;38.13;99942.77;1741992;81;25731;-66
2021/07/18 14:27:58;;;;;;;7.83;6.70;;;;;;;33.17;38.13;99942.77;1742636;80;27343;-67
2021/07/18 14:30:28;;;;;;;10.03;7.45;;;;;;;32.89;37.76;99947.83;1750485;80;25768;-67
2021/07/18 14:32:56;;;;;;;7.60;6.90;;;;;;;32.67;38.20;99936.08;1741682;80;26707;-67
2021/07/18 14:35:24;;;;;;;7.65;6.40;;;;;;;32.61;38.61;99940.16;1741311;80;26415;-67
2021/07/18 14:37:51;;;;;;;7.50;6.80;;;;;;;32.59;38.59;99932.82;1743514;80;25802;-67
2021/07/18 14:40:20;;;;;;;7.40;6.70;;;;;;;32.57;39.02;99923.49;1757068;80;27552;-66
2021/07/18 14:42:48;;;;;;;8.23;6.67;;;;;;;32.68;39.28;99922.25;1745562;80;26418;-67
2021/07/18 14:45:16;;;;;;;7.97;7.25;;;;;;;32.81;39.46;99918.63;1752687;80;25693;-67
2021/07/18 14:47:45;;;;;;;7.22;6.62;;;;;;;32.92;39.40;99920.28;1745507;80;25773;-68
2021/07/18 14:50:13;;;;;;;7.65;6.37;;;;;;;33.04;39.42;99920.56;1749928;80;25723;-66
2021/07/18 14:52:40;;;;;;;7.97;5.90;;;;;;;33.14;38.87;99927.67;1748341;80;27520;-65
2021/07/18 14:55:09;;;;;;;7.70;6.87;;;;;;;33.20;38.94;99927.19;1744365;80;25668;-68
2021/07/18 14:57:59;;;;;;;;;;;;;;;;;;;;;
2021/07/18 15:00:18;;;;;;;7.35;6.62;;;;;;;33.24;38.53;99928.44;1738739;80;25890;-79
2021/07/18 15:02:45;;;;;;;7.20;6.50;;;;;;;33.29;38.33;99924.98;1719197;80;25731;-78
2021/07/18 15:05:14;;;;;;;9.28;6.97;;;;;;;33.33;38.31;99927.61;1762931;80;28188;-77
2021/07/18 15:07:43;;;;;;;9.93;6.72;;;;;;;33.30;38.22;99937.09;1663001;83;25814;-77
2021/07/18 15:10:14;;;;;;;9.13;6.95;;;;;;;33.30;38.34;99935.69;1717019;81;25690;-77
2021/07/18 15:12:41;;;;;;;10.18;6.72;;;;;;;33.27;38.13;99938.06;1736197;81;25696;-77
2021/07/18 15:15:14;;;;;;;9.13;7.00;;;;;;;33.23;38.30;99940.25;1716417;83;25743;-77
2021/07/18 15:17:40;;;;;;;9.05;6.67;;;;;;;33.20;38.45;99941.20;1715605;81;27331;-76
2021/07/18 15:20:12;;;;;;;9.33;6.92;;;;;;;33.18;38.66;99946.50;1735337;81;25832;-79
2021/07/18 15:22:40;;;;;;;7.70;7.00;;;;;;;33.13;38.38;99946.52;1727800;81;25355;-77
2021/07/18 15:25:09;;;;;;;8.30;7.20;;;;;;;33.00;38.29;99945.95;1750032;80;25634;-77
2021/07/18 15:27:36;;;;;;;8.00;7.20;;;;;;;32.88;38.21;99949.09;1657451;83;25752;-77
2021/07/18 15:30:06;;;;;;;10.65;7.00;;;;;;;32.72;38.43;99954.41;1737065;81;27404;-77
2021/07/18 15:32:33;;;;;;;11.68;6.60;;;;;;;32.62;38.64;99953.52;1734750;81;26739;-76
2021/07/18 15:34:59;;;;;;;9.10;7.10;;;;;;;32.50;38.53;99955.98;1736689;81;25716;-77
2021/07/18 15:37:26;;;;;;;10.35;7.78;;;;;;;32.36;38.37;99949.64;1727008;81;25726;-78
2021/07/18 15:39:52;;;;;;;10.65;7.62;;;;;;;32.22;38.67;99949.66;1754968;80;25797;-75
2021/07/18 15:42:19;;;;;;;9.55;7.28;;;;;;;32.12;39.10;99946.08;1754701;80;27408;-77
2021/07/18 15:44:46;;;;;;;9.23;7.40;;;;;;;32.07;39.34;99947.34;1698076;83;25713;-77
2021/07/18 15:47:13;;;;;;;8.48;6.90;;;;;;;31.98;39.56;99950.88;1760634;80;25711;-77
2021/07/18 15:49:41;;;;;;;10.75;7.83;;;;;;;31.91;39.83;99951.16;1744317;80;25754;-77
2021/07/18 15:52:09;;;;;;;9.55;7.25;;;;;;;31.81;39.94;99945.58;1754099;80;25802;-76
2021/07/18 15:54:36;;;;;;;7.87;7.23;;;;;;;31.63;40.05;99946.94;1746922;80;27379;-77
2021/07/18 15:57:03;;;;;;;9.25;7.53;;;;;;;31.43;40.24;99951.52;1696655;83;25738;-77
2021/07/18 15:59:31;;;;;;;8.18;7.37;;;;;;;31.25;40.55;99948.83;1710133;80;25747;-76
2021/07/18 16:01:59;;;;;;;8.10;7.40;;;;;;;31.11;40.81;99943.83;1695445;83;27828;-76
2021/07/18 16:04:26;;;;;;;9.13;7.50;;;;;;;30.99;41.31;99940.49;1752840;80;25771;-66
2021/07/18 16:06:53;;;;;;;8.55;7.47;;;;;;;30.86;42.03;99943.36;1762795;80;27317;-76
2021/07/18 16:09:20;;;;;;;10.15;7.65;;;;;;;30.72;42.89;99943.30;1762831;80;25712;-76
2021/07/18 16:11:50;;;;;;;;;;;;;;;30.57;42.88;99947.86;1627522;81;25806;-76
2021/07/18 16:14:17;;;;;;;10.77;8.43;;;;;;;30.41;43.47;99949.62;1657941;86;25706;-66
2021/07/18 16:16:44;;;;;;;14.68;8.93;;;;;;;30.25;44.43;99962.31;1651301;85;25804;-66
2021/07/18 16:19:10;;;;;;;12.50;8.78;;;;;;;30.04;45.56;99959.05;1667614;85;27525;-66
2021/07/18 16:21:37;;;;;;;11.55;8.70;;;;;;;29.84;46.52;99961.34;1647065;86;25823;-66
2021/07/18 16:24:04;;;;;;;10.78;9.18;;;;;;;29.54;47.06;99953.72;1665136;85;25773;-67
2021/07/18 16:26:32;;;;;;;19.77;14.18;;;;;;;29.22;49.17;99946.58;1682485;85;25712;-79
2021/07/18 16:29:00;;;;;;;13.13;10.32;;;;;;;28.86;50.30;99939.30;1681644;85;25734;-79
2021/07/18 16:31:27;;;;;;;14.58;11.57;;;;;;;28.56;51.33;99941.95;1681565;85;27340;-80
2021/07/18 16:33:54;;;;;;;10.50;9.03;;;;;;;28.30;52.09;99939.69;1680971;85;25891;-80
2021/07/18 16:36:21;;;;;;;12.95;9.78;;;;;;;28.09;52.52;99943.22;1666059;84;25910;-80
2021/07/18 16:38:49;;;;;;;12.73;9.73;;;;;;;27.93;53.31;99948.80;1659383;86;26186;-80
2021/07/18 16:41:15;;;;;;;12.13;8.90;;;;;;;27.74;54.20;99952.61;1669429;85;25806;-80
2021/07/18 16:43:42;;;;;;;28.27;23.32;;;;;;;27.62;54.44;99951.12;1648978;86;27315;-80
2021/07/18 16:46:10;;;;;;;12.00;9.83;;;;;;;27.52;55.10;99951.59;1685229;84;25999;-80
2021/07/18 16:48:39;;;;;;;12.83;10.03;;;;;;;27.46;55.88;99947.75;1692075;83;25846;-80
2021/07/18 16:51:06;;;;;;;15.45;10.23;;;;;;;27.44;57.18;99946.80;1730533;82;25827;-79
2021/07/18 16:53:33;;;;;;;10.63;9.58;;;;;;;27.35;58.24;99941.08;1691080;83;25851;-79
2021/07/18 16:56:00;;;;;;;10.80;9.45;;;;;;;27.31;58.18;99935.61;1700230;82;27321;-80
2021/07/18 16:58:28;;;;;;;11.63;10.35;;;;;;;27.33;59.26;99940.73;1704203;82;25816;-80
2021/07/18 17:00:57;;;;;;;11.05;9.48;;;;;;;27.36;60.04;99933.70;1730609;82;26187;-79
2021/07/18 17:03:23;;;;;;;13.25;9.83;;;;;;;27.41;59.92;99930.22;1726788;82;25770;-65
2021/07/18 17:05:49;;;;;;;12.45;10.48;;;;;;;27.49;60.50;99935.78;1721608;82;25723;-65
2021/07/18 17:08:18;;;;;;;14.00;11.38;;;;;;;27.53;60.02;99932.30;1723577;82;29582;-66
2021/07/18 17:10:45;;;;;;;11.45;9.70;;;;;;;27.56;60.03;99926.66;1723516;82;25782;-79
2021/07/18 17:13:12;;;;;;;12.20;9.08;;;;;;;27.59;59.47;99926.41;1720764;82;26360;-80
2021/07/18 17:15:38;;;;;;;12.95;10.53;;;;;;;27.57;59.06;99928.23;1726659;82;26615;-80
2021/07/18 17:18:07;;;;;;;11.15;9.65;;;;;;;27.55;58.87;99927.12;1714471;82;25665;-80
2021/07/18 17:20:35;;;;;;;12.68;9.53;;;;;;;27.51;58.51;99925.78;1732139;82;27366;-79
2021/07/18 17:23:02;;;;;;;10.48;9.45;;;;;;;27.49;58.54;99930.23;1734237;82;25703;-80
2021/07/18 17:25:28;;;;;;;10.13;9.00;;;;;;;27.46;58.64;99928.31;1728388;82;25815;-79
2021/07/18 17:27:54;;;;;;;11.97;9.93;;;;;;;27.43;58.30;99929.17;1680745;83;25847;-79
2021/07/18 17:30:23;;;;;;;11.63;9.63;;;;;;;27.37;58.97;99926.14;1731160;82;25723;-79
2021/07/18 17:32:51;;;;;;;12.95;9.05;;;;;;;27.32;59.22;99929.44;1725639;82;27316;-66
2021/07/18 17:35:17;;;;;;;9.70;8.75;;;;;;;27.23;59.23;99925.08;1719650;82;25799;-65
2021/07/18 17:37:46;;;;;;;12.20;9.15;;;;;;;27.14;59.62;99936.17;1726485;82;26274;-66
2021/07/18 17:40:13;;;;;;;10.10;9.10;;;;;;;27.05;59.98;99931.80;1731447;82;26349;-66
2021/07/18 17:42:42;;;;;;;11.78;9.68;;;;;;;26.92;59.98;99935.86;1731320;82;25775;-66